sensor_id;sensor_type;location;lat;lon;timestamp;P1;durP1;ratioP1;P2;durP2;ratioP2
50683;SDS011;36654;45.042;38.994;2023-11-19T00:02:18;9.20;;;5.32;;
50683;SDS011;36654;45.042;38.994;2023-11-19T00:04:44;6.72;;;4.43;;
50683;SDS011;36654;45.042;38.994;2023-11-19T00:07:10;7.45;;;5.20;;
50683;SDS011;36654;45.042;38.994;2023-11-19T00:09:37;8.13;;;4.78;;
50683;SDS011;36654;45.042;38.994;2023-11-19T00:12:03;9.55;;;4.22;;
50683;SDS011;36654;45.042;38.994;2023-11-19T00:14:30;8.43;;;4.68;;
50683;SDS011;36654;45.042;38.994;2023-11-19T00:16:56;8.30;;;5.07;;
50683;SDS011;36654;45.042;38.994;2023-11-19T00:19:21;9.10;;;5.00;;
50683;SDS011;36654;45.042;38.994;2023-11-19T00:21:47;8.70;;;5.35;;
50683;SDS011;36654;45.042;38.994;2023-11-19T00:24:13;9.43;;;4.90;;
50683;SDS011;36654;45.042;38.994;2023-11-19T00:26:41;8.05;;;5.15;;
50683;SDS011;36654;45.042;38.994;2023-11-19T00:29:07;9.02;;;5.40;;
50683;SDS011;36654;45.042;38.994;2023-11-19T00:31:33;6.70;;;5.00;;
50683;SDS011;36654;45.042;38.994;2023-11-19T00:33:58;7.68;;;5.40;;
50683;SDS011;36654;45.042;38.994;2023-11-19T00:36:24;10.88;;;5.30;;
50683;SDS011;36654;45.042;38.994;2023-11-19T00:38:50;10.57;;;5.78;;
50683;SDS011;36654;45.042;38.994;2023-11-19T00:41:18;8.52;;;5.38;;
50683;SDS011;36654;45.042;38.994;2023-11-19T00:43:43;12.18;;;6.43;;
50683;SDS011;36654;45.042;38.994;2023-11-19T00:46:09;11.60;;;5.68;;
50683;SDS011;36654;45.042;38.994;2023-11-19T00:48:36;11.95;;;5.30;;
50683;SDS011;36654;45.042;38.994;2023-11-19T00:51:02;9.18;;;5.05;;
50683;SDS011;36654;45.042;38.994;2023-11-19T00:53:29;11.93;;;6.22;;
50683;SDS011;36654;45.042;38.994;2023-11-19T00:55:55;10.52;;;5.95;;
50683;SDS011;36654;45.042;38.994;2023-11-19T00:58:21;10.15;;;6.60;;
50683;SDS011;36654;45.042;38.994;2023-11-19T01:00:47;11.20;;;6.22;;
50683;SDS011;36654;45.042;38.994;2023-11-19T01:03:12;9.07;;;6.30;;
50683;SDS011;36654;45.042;38.994;2023-11-19T01:05:38;10.23;;;5.80;;
50683;SDS011;36654;45.042;38.994;2023-11-19T01:08:04;10.55;;;6.57;;
50683;SDS011;36654;45.042;38.994;2023-11-19T01:10:30;9.73;;;6.22;;
50683;SDS011;36654;45.042;38.994;2023-11-19T01:12:56;7.05;;;4.90;;
50683;SDS011;36654;45.042;38.994;2023-11-19T01:15:22;12.98;;;6.07;;
50683;SDS011;36654;45.042;38.994;2023-11-19T01:17:48;11.48;;;6.10;;
50683;SDS011;36654;45.042;38.994;2023-11-19T01:20:14;10.13;;;6.07;;
50683;SDS011;36654;45.042;38.994;2023-11-19T01:22:40;14.05;;;7.00;;
50683;SDS011;36654;45.042;38.994;2023-11-19T01:25:06;18.48;;;7.43;;
50683;SDS011;36654;45.042;38.994;2023-11-19T01:27:32;11.63;;;6.90;;
50683;SDS011;36654;45.042;38.994;2023-11-19T01:30:01;12.95;;;7.65;;
50683;SDS011;36654;45.042;38.994;2023-11-19T01:32:31;12.50;;;6.05;;
50683;SDS011;36654;45.042;38.994;2023-11-19T01:34:58;9.60;;;5.95;;
50683;SDS011;36654;45.042;38.994;2023-11-19T01:37:23;13.25;;;7.03;;
50683;SDS011;36654;45.042;38.994;2023-11-19T01:39:49;11.48;;;6.88;;
50683;SDS011;36654;45.042;38.994;2023-11-19T01:42:15;12.30;;;6.32;;
50683;SDS011;36654;45.042;38.994;2023-11-19T01:44:41;12.88;;;7.30;;
50683;SDS011;36654;45.042;38.994;2023-11-19T01:47:07;12.52;;;7.10;;
50683;SDS011;36654;45.042;38.994;2023-11-19T01:49:34;9.50;;;6.53;;
50683;SDS011;36654;45.042;38.994;2023-11-19T01:52:00;13.35;;;7.22;;
50683;SDS011;36654;45.042;38.994;2023-11-19T01:54:25;11.45;;;7.00;;
50683;SDS011;36654;45.042;38.994;2023-11-19T01:56:53;14.07;;;7.43;;
50683;SDS011;36654;45.042;38.994;2023-11-19T01:59:21;11.10;;;6.97;;
50683;SDS011;36654;45.042;38.994;2023-11-19T02:01:52;9.93;;;5.95;;
50683;SDS011;36654;45.042;38.994;2023-11-19T02:04:21;11.63;;;6.15;;
50683;SDS011;36654;45.042;38.994;2023-11-19T02:06:47;10.77;;;6.22;;
50683;SDS011;36654;45.042;38.994;2023-11-19T02:09:17;12.43;;;6.18;;
50683;SDS011;36654;45.042;38.994;2023-11-19T02:11:44;10.07;;;6.28;;
50683;SDS011;36654;45.042;38.994;2023-11-19T02:14:14;10.48;;;6.20;;
50683;SDS011;36654;45.042;38.994;2023-11-19T02:16:40;12.88;;;7.00;;
50683;SDS011;36654;45.042;38.994;2023-11-19T02:19:06;10.25;;;6.43;;
50683;SDS011;36654;45.042;38.994;2023-11-19T02:21:33;10.57;;;6.50;;
50683;SDS011;36654;45.042;38.994;2023-11-19T02:23:59;12.50;;;6.13;;
50683;SDS011;36654;45.042;38.994;2023-11-19T02:26:28;11.40;;;6.43;;
50683;SDS011;36654;45.042;38.994;2023-11-19T02:29:01;9.77;;;5.93;;
50683;SDS011;36654;45.042;38.994;2023-11-19T02:31:28;14.05;;;6.53;;
50683;SDS011;36654;45.042;38.994;2023-11-19T02:33:53;9.38;;;6.18;;
50683;SDS011;36654;45.042;38.994;2023-11-19T02:36:20;11.57;;;6.30;;
50683;SDS011;36654;45.042;38.994;2023-11-19T02:38:46;12.80;;;6.43;;
50683;SDS011;36654;45.042;38.994;2023-11-19T02:41:13;10.05;;;6.18;;
50683;SDS011;36654;45.042;38.994;2023-11-19T02:43:39;9.98;;;5.65;;
50683;SDS011;36654;45.042;38.994;2023-11-19T02:46:05;12.23;;;6.10;;
50683;SDS011;36654;45.042;38.994;2023-11-19T02:48:36;9.70;;;5.80;;
50683;SDS011;36654;45.042;38.994;2023-11-19T02:51:02;9.65;;;5.60;;
50683;SDS011;36654;45.042;38.994;2023-11-19T02:53:29;11.93;;;5.78;;
50683;SDS011;36654;45.042;38.994;2023-11-19T02:58:27;11.50;;;4.95;;
50683;SDS011;36654;45.042;38.994;2023-11-19T03:00:54;10.43;;;5.53;;
50683;SDS011;36654;45.042;38.994;2023-11-19T03:03:24;7.38;;;4.38;;
50683;SDS011;36654;45.042;38.994;2023-11-19T03:05:56;8.38;;;5.30;;
50683;SDS011;36654;45.042;38.994;2023-11-19T03:08:22;10.93;;;4.80;;
50683;SDS011;36654;45.042;38.994;2023-11-19T03:10:48;7.97;;;4.90;;
50683;SDS011;36654;45.042;38.994;2023-11-19T03:13:14;7.03;;;4.00;;
50683;SDS011;36654;45.042;38.994;2023-11-19T03:15:40;6.13;;;3.90;;
50683;SDS011;36654;45.042;38.994;2023-11-19T03:18:06;5.55;;;4.28;;
50683;SDS011;36654;45.042;38.994;2023-11-19T03:20:32;5.97;;;3.92;;
50683;SDS011;36654;45.042;38.994;2023-11-19T03:22:58;6.45;;;3.80;;
50683;SDS011;36654;45.042;38.994;2023-11-19T03:25:25;5.25;;;3.80;;
50683;SDS011;36654;45.042;38.994;2023-11-19T03:27:59;5.95;;;3.28;;
50683;SDS011;36654;45.042;38.994;2023-11-19T03:30:26;7.03;;;4.10;;
50683;SDS011;36654;45.042;38.994;2023-11-19T03:32:53;4.55;;;3.00;;
50683;SDS011;36654;45.042;38.994;2023-11-19T03:35:19;4.35;;;2.83;;
50683;SDS011;36654;45.042;38.994;2023-11-19T03:37:45;4.32;;;3.25;;
50683;SDS011;36654;45.042;38.994;2023-11-19T03:40:11;3.88;;;2.88;;
50683;SDS011;36654;45.042;38.994;2023-11-19T03:42:37;4.35;;;2.42;;
50683;SDS011;36654;45.042;38.994;2023-11-19T03:45:05;3.10;;;2.50;;
50683;SDS011;36654;45.042;38.994;2023-11-19T03:47:33;3.53;;;2.97;;
50683;SDS011;36654;45.042;38.994;2023-11-19T03:49:59;3.03;;;2.67;;
50683;SDS011;36654;45.042;38.994;2023-11-19T03:52:25;2.88;;;2.40;;
50683;SDS011;36654;45.042;38.994;2023-11-19T03:54:52;3.35;;;2.53;;
50683;SDS011;36654;45.042;38.994;2023-11-19T03:57:19;3.17;;;2.00;;
50683;SDS011;36654;45.042;38.994;2023-11-19T03:59:45;3.22;;;2.08;;
50683;SDS011;36654;45.042;38.994;2023-11-19T04:02:10;2.03;;;1.85;;
50683;SDS011;36654;45.042;38.994;2023-11-19T04:04:36;2.13;;;1.70;;
50683;SDS011;36654;45.042;38.994;2023-11-19T04:07:04;4.13;;;1.60;;
50683;SDS011;36654;45.042;38.994;2023-11-19T04:09:30;1.45;;;1.35;;
50683;SDS011;36654;45.042;38.994;2023-11-19T04:11:57;1.77;;;1.40;;
50683;SDS011;36654;45.042;38.994;2023-11-19T04:14:23;1.50;;;1.40;;
50683;SDS011;36654;45.042;38.994;2023-11-19T04:16:49;2.22;;;1.52;;
50683;SDS011;36654;45.042;38.994;2023-11-19T04:19:16;2.15;;;1.95;;
50683;SDS011;36654;45.042;38.994;2023-11-19T04:21:41;1.90;;;1.60;;
50683;SDS011;36654;45.042;38.994;2023-11-19T04:24:08;1.52;;;1.08;;
50683;SDS011;36654;45.042;38.994;2023-11-19T04:26:46;1.58;;;1.48;;
50683;SDS011;36654;45.042;38.994;2023-11-19T04:29:12;2.85;;;1.25;;
50683;SDS011;36654;45.042;38.994;2023-11-19T04:31:38;2.03;;;1.48;;
50683;SDS011;36654;45.042;38.994;2023-11-19T04:34:05;1.30;;;1.20;;
50683;SDS011;36654;45.042;38.994;2023-11-19T04:36:31;2.08;;;1.45;;
50683;SDS011;36654;45.042;38.994;2023-11-19T04:38:58;1.27;;;1.08;;
50683;SDS011;36654;45.042;38.994;2023-11-19T04:41:24;2.00;;;1.45;;
50683;SDS011;36654;45.042;38.994;2023-11-19T04:43:52;1.38;;;1.13;;
50683;SDS011;36654;45.042;38.994;2023-11-19T04:46:18;1.50;;;1.40;;
50683;SDS011;36654;45.042;38.994;2023-11-19T04:48:44;3.28;;;1.70;;
50683;SDS011;36654;45.042;38.994;2023-11-19T04:51:10;2.53;;;1.48;;
50683;SDS011;36654;45.042;38.994;2023-11-19T04:53:36;2.83;;;1.52;;
50683;SDS011;36654;45.042;38.994;2023-11-19T04:56:07;3.05;;;1.67;;
50683;SDS011;36654;45.042;38.994;2023-11-19T04:58:38;1.30;;;1.17;;
50683;SDS011;36654;45.042;38.994;2023-11-19T05:01:04;2.75;;;1.00;;
50683;SDS011;36654;45.042;38.994;2023-11-19T05:03:30;3.90;;;1.60;;
50683;SDS011;36654;45.042;38.994;2023-11-19T05:05:57;3.13;;;1.92;;
50683;SDS011;36654;45.042;38.994;2023-11-19T05:08:23;1.70;;;1.20;;
50683;SDS011;36654;45.042;38.994;2023-11-19T05:10:48;1.23;;;1.00;;
50683;SDS011;36654;45.042;38.994;2023-11-19T05:13:14;1.55;;;1.00;;
50683;SDS011;36654;45.042;38.994;2023-11-19T05:15:40;1.40;;;1.30;;
50683;SDS011;36654;45.042;38.994;2023-11-19T05:18:06;1.75;;;1.20;;
50683;SDS011;36654;45.042;38.994;2023-11-19T05:20:31;3.35;;;1.33;;
50683;SDS011;36654;45.042;38.994;2023-11-19T05:22:57;0.95;;;0.93;;
50683;SDS011;36654;45.042;38.994;2023-11-19T05:25:25;2.42;;;1.70;;
50683;SDS011;36654;45.042;38.994;2023-11-19T05:27:52;4.00;;;2.03;;
50683;SDS011;36654;45.042;38.994;2023-11-19T05:30:18;1.85;;;1.50;;
50683;SDS011;36654;45.042;38.994;2023-11-19T05:32:44;1.52;;;1.42;;
50683;SDS011;36654;45.042;38.994;2023-11-19T05:35:10;3.50;;;1.83;;
50683;SDS011;36654;45.042;38.994;2023-11-19T05:37:37;1.58;;;1.30;;
50683;SDS011;36654;45.042;38.994;2023-11-19T05:40:02;2.67;;;1.73;;
50683;SDS011;36654;45.042;38.994;2023-11-19T05:44:57;1.40;;;1.30;;
50683;SDS011;36654;45.042;38.994;2023-11-19T05:47:22;2.65;;;1.60;;
50683;SDS011;36654;45.042;38.994;2023-11-19T05:49:48;6.10;;;1.85;;
50683;SDS011;36654;45.042;38.994;2023-11-19T05:52:14;1.92;;;1.45;;
50683;SDS011;36654;45.042;38.994;2023-11-19T05:54:39;1.95;;;1.42;;
50683;SDS011;36654;45.042;38.994;2023-11-19T05:57:05;4.05;;;1.83;;
50683;SDS011;36654;45.042;38.994;2023-11-19T05:59:34;2.35;;;1.70;;
50683;SDS011;36654;45.042;38.994;2023-11-19T06:02:01;9.88;;;1.77;;
50683;SDS011;36654;45.042;38.994;2023-11-19T06:04:27;1.88;;;1.67;;
50683;SDS011;36654;45.042;38.994;2023-11-19T06:06:53;1.80;;;1.60;;
50683;SDS011;36654;45.042;38.994;2023-11-19T06:09:20;1.90;;;1.55;;
50683;SDS011;36654;45.042;38.994;2023-11-19T06:11:48;2.47;;;2.10;;
50683;SDS011;36654;45.042;38.994;2023-11-19T06:14:16;2.13;;;1.55;;
50683;SDS011;36654;45.042;38.994;2023-11-19T06:16:41;2.67;;;2.03;;
50683;SDS011;36654;45.042;38.994;2023-11-19T06:19:07;1.55;;;1.45;;
50683;SDS011;36654;45.042;38.994;2023-11-19T06:21:33;4.35;;;1.40;;
50683;SDS011;36654;45.042;38.994;2023-11-19T06:24:00;2.00;;;1.77;;
50683;SDS011;36654;45.042;38.994;2023-11-19T06:26:26;1.50;;;1.40;;
50683;SDS011;36654;45.042;38.994;2023-11-19T06:28:52;2.17;;;1.63;;
50683;SDS011;36654;45.042;38.994;2023-11-19T06:31:18;1.63;;;1.52;;
50683;SDS011;36654;45.042;38.994;2023-11-19T06:33:43;3.13;;;2.33;;
50683;SDS011;36654;45.042;38.994;2023-11-19T06:36:09;3.40;;;2.42;;
50683;SDS011;36654;45.042;38.994;2023-11-19T06:38:35;2.83;;;2.55;;
50683;SDS011;36654;45.042;38.994;2023-11-19T06:41:00;2.75;;;1.98;;
50683;SDS011;36654;45.042;38.994;2023-11-19T06:43:26;2.70;;;2.30;;
50683;SDS011;36654;45.042;38.994;2023-11-19T06:45:53;2.53;;;2.13;;
50683;SDS011;36654;45.042;38.994;2023-11-19T06:48:19;2.85;;;2.05;;
50683;SDS011;36654;45.042;38.994;2023-11-19T06:50:45;2.97;;;2.10;;
50683;SDS011;36654;45.042;38.994;2023-11-19T06:53:10;4.38;;;2.35;;
50683;SDS011;36654;45.042;38.994;2023-11-19T06:55:36;3.08;;;2.40;;
50683;SDS011;36654;45.042;38.994;2023-11-19T06:58:02;4.72;;;2.53;;
50683;SDS011;36654;45.042;38.994;2023-11-19T07:00:28;2.65;;;2.45;;
50683;SDS011;36654;45.042;38.994;2023-11-19T07:02:54;5.30;;;2.10;;
50683;SDS011;36654;45.042;38.994;2023-11-19T07:05:20;3.15;;;2.22;;
50683;SDS011;36654;45.042;38.994;2023-11-19T07:07:46;2.13;;;2.03;;
50683;SDS011;36654;45.042;38.994;2023-11-19T07:10:12;2.83;;;1.90;;
50683;SDS011;36654;45.042;38.994;2023-11-19T07:12:38;2.67;;;2.10;;
50683;SDS011;36654;45.042;38.994;2023-11-19T07:15:04;2.05;;;1.67;;
50683;SDS011;36654;45.042;38.994;2023-11-19T07:17:30;1.65;;;1.55;;
50683;SDS011;36654;45.042;38.994;2023-11-19T07:19:56;5.18;;;2.25;;
50683;SDS011;36654;45.042;38.994;2023-11-19T07:22:24;2.95;;;2.00;;
50683;SDS011;36654;45.042;38.994;2023-11-19T07:24:50;4.07;;;2.10;;
50683;SDS011;36654;45.042;38.994;2023-11-19T07:27:18;3.22;;;2.35;;
50683;SDS011;36654;45.042;38.994;2023-11-19T07:29:44;3.78;;;2.03;;
50683;SDS011;36654;45.042;38.994;2023-11-19T07:32:10;4.05;;;2.00;;
50683;SDS011;36654;45.042;38.994;2023-11-19T07:34:37;2.53;;;1.85;;
50683;SDS011;36654;45.042;38.994;2023-11-19T07:37:02;2.25;;;2.00;;
50683;SDS011;36654;45.042;38.994;2023-11-19T07:39:28;2.30;;;1.92;;
50683;SDS011;36654;45.042;38.994;2023-11-19T07:41:54;2.10;;;1.92;;
50683;SDS011;36654;45.042;38.994;2023-11-19T07:44:23;2.45;;;2.25;;
50683;SDS011;36654;45.042;38.994;2023-11-19T07:46:49;2.20;;;1.90;;
50683;SDS011;36654;45.042;38.994;2023-11-19T07:49:15;3.78;;;2.40;;
50683;SDS011;36654;45.042;38.994;2023-11-19T07:51:41;2.80;;;1.90;;
50683;SDS011;36654;45.042;38.994;2023-11-19T07:54:06;3.47;;;2.20;;
50683;SDS011;36654;45.042;38.994;2023-11-19T07:56:35;3.08;;;2.20;;
50683;SDS011;36654;45.042;38.994;2023-11-19T07:59:01;2.42;;;2.22;;
50683;SDS011;36654;45.042;38.994;2023-11-19T08:01:27;2.25;;;2.00;;
50683;SDS011;36654;45.042;38.994;2023-11-19T08:03:53;4.13;;;2.20;;
50683;SDS011;36654;45.042;38.994;2023-11-19T08:06:19;5.53;;;2.30;;
50683;SDS011;36654;45.042;38.994;2023-11-19T08:08:44;4.45;;;2.53;;
50683;SDS011;36654;45.042;38.994;2023-11-19T08:11:10;2.75;;;1.67;;
50683;SDS011;36654;45.042;38.994;2023-11-19T08:13:36;3.03;;;1.92;;
50683;SDS011;36654;45.042;38.994;2023-11-19T08:16:01;6.45;;;2.08;;
50683;SDS011;36654;45.042;38.994;2023-11-19T08:18:27;3.03;;;2.40;;
50683;SDS011;36654;45.042;38.994;2023-11-19T08:20:53;2.50;;;2.30;;
50683;SDS011;36654;45.042;38.994;2023-11-19T08:23:19;4.45;;;2.30;;
50683;SDS011;36654;45.042;38.994;2023-11-19T08:25:46;2.22;;;2.00;;
50683;SDS011;36654;45.042;38.994;2023-11-19T08:28:14;3.67;;;2.20;;
50683;SDS011;36654;45.042;38.994;2023-11-19T08:30:39;4.03;;;2.50;;
50683;SDS011;36654;45.042;38.994;2023-11-19T08:33:05;3.55;;;2.38;;
50683;SDS011;36654;45.042;38.994;2023-11-19T08:35:32;2.35;;;2.03;;
50683;SDS011;36654;45.042;38.994;2023-11-19T08:37:58;2.72;;;2.17;;
50683;SDS011;36654;45.042;38.994;2023-11-19T08:40:24;3.67;;;2.60;;
50683;SDS011;36654;45.042;38.994;2023-11-19T08:45:18;3.65;;;2.17;;
50683;SDS011;36654;45.042;38.994;2023-11-19T08:47:44;3.65;;;2.22;;
50683;SDS011;36654;45.042;38.994;2023-11-19T08:50:10;4.07;;;2.25;;
50683;SDS011;36654;45.042;38.994;2023-11-19T08:52:36;3.03;;;2.05;;
50683;SDS011;36654;45.042;38.994;2023-11-19T08:55:02;3.03;;;2.17;;
50683;SDS011;36654;45.042;38.994;2023-11-19T08:57:30;4.20;;;2.40;;
50683;SDS011;36654;45.042;38.994;2023-11-19T08:59:56;6.60;;;2.00;;
50683;SDS011;36654;45.042;38.994;2023-11-19T09:02:22;4.95;;;2.85;;
50683;SDS011;36654;45.042;38.994;2023-11-19T09:04:47;3.80;;;1.83;;
50683;SDS011;36654;45.042;38.994;2023-11-19T09:07:13;1.95;;;1.70;;
50683;SDS011;36654;45.042;38.994;2023-11-19T09:09:39;2.00;;;1.75;;
50683;SDS011;36654;45.042;38.994;2023-11-19T09:12:06;2.22;;;1.60;;
50683;SDS011;36654;45.042;38.994;2023-11-19T09:14:32;1.92;;;1.73;;
50683;SDS011;36654;45.042;38.994;2023-11-19T09:16:58;3.20;;;1.98;;
50683;SDS011;36654;45.042;38.994;2023-11-19T09:19:26;4.90;;;2.30;;
50683;SDS011;36654;45.042;38.994;2023-11-19T09:21:52;2.30;;;1.90;;
50683;SDS011;36654;45.042;38.994;2023-11-19T09:24:18;1.92;;;1.67;;
50683;SDS011;36654;45.042;38.994;2023-11-19T09:26:44;2.72;;;2.08;;
50683;SDS011;36654;45.042;38.994;2023-11-19T09:29:10;3.90;;;2.03;;
50683;SDS011;36654;45.042;38.994;2023-11-19T09:31:37;3.78;;;2.17;;
50683;SDS011;36654;45.042;38.994;2023-11-19T09:34:04;3.95;;;2.40;;
50683;SDS011;36654;45.042;38.994;2023-11-19T09:36:30;3.35;;;2.20;;
50683;SDS011;36654;45.042;38.994;2023-11-19T09:38:56;3.05;;;2.28;;
50683;SDS011;36654;45.042;38.994;2023-11-19T09:41:22;2.45;;;2.17;;
50683;SDS011;36654;45.042;38.994;2023-11-19T09:43:49;3.88;;;3.22;;
50683;SDS011;36654;45.042;38.994;2023-11-19T09:46:15;3.10;;;2.42;;
50683;SDS011;36654;45.042;38.994;2023-11-19T09:48:41;3.97;;;2.15;;
50683;SDS011;36654;45.042;38.994;2023-11-19T09:51:11;4.13;;;2.53;;
50683;SDS011;36654;45.042;38.994;2023-11-19T09:53:37;4.32;;;3.30;;
50683;SDS011;36654;45.042;38.994;2023-11-19T09:56:04;4.45;;;2.50;;
50683;SDS011;36654;45.042;38.994;2023-11-19T09:58:31;4.13;;;2.75;;
50683;SDS011;36654;45.042;38.994;2023-11-19T10:00:59;5.45;;;2.70;;
50683;SDS011;36654;45.042;38.994;2023-11-19T10:03:28;5.20;;;3.17;;
50683;SDS011;36654;45.042;38.994;2023-11-19T10:05:59;6.45;;;3.15;;
50683;SDS011;36654;45.042;38.994;2023-11-19T10:08:26;3.55;;;2.40;;
50683;SDS011;36654;45.042;38.994;2023-11-19T10:10:52;5.35;;;3.28;;
50683;SDS011;36654;45.042;38.994;2023-11-19T10:13:17;7.25;;;2.78;;
50683;SDS011;36654;45.042;38.994;2023-11-19T10:15:43;4.13;;;2.88;;
50683;SDS011;36654;45.042;38.994;2023-11-19T10:18:09;3.42;;;2.67;;
50683;SDS011;36654;45.042;38.994;2023-11-19T10:20:35;4.93;;;3.00;;
50683;SDS011;36654;45.042;38.994;2023-11-19T10:23:02;3.60;;;3.13;;
50683;SDS011;36654;45.042;38.994;2023-11-19T10:25:28;5.88;;;3.38;;
50683;SDS011;36654;45.042;38.994;2023-11-19T10:27:55;7.95;;;3.00;;
50683;SDS011;36654;45.042;38.994;2023-11-19T10:30:25;4.05;;;3.15;;
50683;SDS011;36654;45.042;38.994;2023-11-19T10:35:36;4.53;;;3.05;;
50683;SDS011;36654;45.042;38.994;2023-11-19T10:38:19;4.72;;;2.95;;
50683;SDS011;36654;45.042;38.994;2023-11-19T10:40:47;4.40;;;3.10;;
50683;SDS011;36654;45.042;38.994;2023-11-19T10:43:13;6.00;;;2.92;;
50683;SDS011;36654;45.042;38.994;2023-11-19T10:45:39;5.00;;;3.03;;
50683;SDS011;36654;45.042;38.994;2023-11-19T10:48:06;4.18;;;3.22;;
50683;SDS011;36654;45.042;38.994;2023-11-19T10:50:32;7.40;;;3.03;;
50683;SDS011;36654;45.042;38.994;2023-11-19T10:53:03;4.20;;;3.00;;
50683;SDS011;36654;45.042;38.994;2023-11-19T10:55:31;5.90;;;3.33;;
50683;SDS011;36654;45.042;38.994;2023-11-19T10:58:03;5.68;;;3.00;;
50683;SDS011;36654;45.042;38.994;2023-11-19T11:00:32;4.10;;;2.67;;
50683;SDS011;36654;45.042;38.994;2023-11-19T11:03:21;10.63;;;3.17;;
50683;SDS011;36654;45.042;38.994;2023-11-19T11:05:50;4.45;;;3.25;;
50683;SDS011;36654;45.042;38.994;2023-11-19T11:08:17;6.15;;;3.47;;
50683;SDS011;36654;45.042;38.994;2023-11-19T11:10:56;4.65;;;3.38;;
50683;SDS011;36654;45.042;38.994;2023-11-19T11:13:23;7.20;;;3.33;;
50683;SDS011;36654;45.042;38.994;2023-11-19T11:15:50;7.15;;;3.33;;
50683;SDS011;36654;45.042;38.994;2023-11-19T11:18:16;5.30;;;3.35;;
50683;SDS011;36654;45.042;38.994;2023-11-19T11:20:45;9.98;;;3.85;;
50683;SDS011;36654;45.042;38.994;2023-11-19T11:29:37;6.53;;;3.85;;
50683;SDS011;36654;45.042;38.994;2023-11-19T11:37:44;7.72;;;4.15;;
50683;SDS011;36654;45.042;38.994;2023-11-19T11:40:16;9.30;;;4.85;;
50683;SDS011;36654;45.042;38.994;2023-11-19T11:42:46;10.75;;;4.45;;
50683;SDS011;36654;45.042;38.994;2023-11-19T11:45:14;9.48;;;5.07;;
50683;SDS011;36654;45.042;38.994;2023-11-19T11:50:15;9.07;;;5.15;;
50683;SDS011;36654;45.042;38.994;2023-11-19T11:55:27;10.35;;;4.80;;
50683;SDS011;36654;45.042;38.994;2023-11-19T11:57:58;10.50;;;5.20;;
50683;SDS011;36654;45.042;38.994;2023-11-19T12:00:38;7.85;;;4.60;;
50683;SDS011;36654;45.042;38.994;2023-11-19T12:03:05;10.25;;;4.70;;
50683;SDS011;36654;45.042;38.994;2023-11-19T12:05:33;7.82;;;4.60;;
50683;SDS011;36654;45.042;38.994;2023-11-19T12:08:06;7.25;;;4.15;;
50683;SDS011;36654;45.042;38.994;2023-11-19T12:13:15;12.32;;;4.80;;
50683;SDS011;36654;45.042;38.994;2023-11-19T12:18:31;9.70;;;4.38;;
50683;SDS011;36654;45.042;38.994;2023-11-19T12:20:58;9.80;;;4.78;;
50683;SDS011;36654;45.042;38.994;2023-11-19T12:23:28;8.73;;;4.20;;
50683;SDS011;36654;45.042;38.994;2023-11-19T12:25:55;6.28;;;3.58;;
50683;SDS011;36654;45.042;38.994;2023-11-19T12:28:21;7.53;;;4.15;;
50683;SDS011;36654;45.042;38.994;2023-11-19T12:30:47;6.03;;;3.50;;
50683;SDS011;36654;45.042;38.994;2023-11-19T12:33:13;9.63;;;4.03;;
50683;SDS011;36654;45.042;38.994;2023-11-19T12:35:40;8.45;;;4.25;;
50683;SDS011;36654;45.042;38.994;2023-11-19T12:38:07;6.32;;;3.67;;
50683;SDS011;36654;45.042;38.994;2023-11-19T12:40:32;7.05;;;4.03;;
50683;SDS011;36654;45.042;38.994;2023-11-19T12:42:58;7.38;;;3.67;;
50683;SDS011;36654;45.042;38.994;2023-11-19T12:45:27;7.93;;;4.88;;
50683;SDS011;36654;45.042;38.994;2023-11-19T12:50:57;8.55;;;4.40;;
50683;SDS011;36654;45.042;38.994;2023-11-19T12:53:25;9.57;;;4.88;;
50683;SDS011;36654;45.042;38.994;2023-11-19T12:55:52;9.77;;;5.07;;
50683;SDS011;36654;45.042;38.994;2023-11-19T12:58:31;9.90;;;5.18;;
50683;SDS011;36654;45.042;38.994;2023-11-19T13:03:37;9.45;;;5.10;;
50683;SDS011;36654;45.042;38.994;2023-11-19T13:06:11;9.27;;;5.40;;
50683;SDS011;36654;45.042;38.994;2023-11-19T13:08:38;9.30;;;5.18;;
50683;SDS011;36654;45.042;38.994;2023-11-19T13:11:09;10.23;;;4.60;;
50683;SDS011;36654;45.042;38.994;2023-11-19T13:16:22;8.18;;;4.60;;
50683;SDS011;36654;45.042;38.994;2023-11-19T13:18:48;10.07;;;4.60;;
50683;SDS011;36654;45.042;38.994;2023-11-19T13:21:14;7.88;;;4.45;;
50683;SDS011;36654;45.042;38.994;2023-11-19T13:23:39;7.88;;;4.70;;
50683;SDS011;36654;45.042;38.994;2023-11-19T13:26:05;10.25;;;5.68;;
50683;SDS011;36654;45.042;38.994;2023-11-19T13:28:31;9.48;;;4.65;;
50683;SDS011;36654;45.042;38.994;2023-11-19T13:30:57;6.80;;;4.20;;
50683;SDS011;36654;45.042;38.994;2023-11-19T13:33:23;8.15;;;4.97;;
50683;SDS011;36654;45.042;38.994;2023-11-19T13:35:48;8.32;;;4.80;;
50683;SDS011;36654;45.042;38.994;2023-11-19T13:38:14;10.60;;;5.60;;
50683;SDS011;36654;45.042;38.994;2023-11-19T13:40:40;8.88;;;5.15;;
50683;SDS011;36654;45.042;38.994;2023-11-19T13:43:06;8.00;;;5.35;;
50683;SDS011;36654;45.042;38.994;2023-11-19T13:45:32;10.40;;;5.85;;
50683;SDS011;36654;45.042;38.994;2023-11-19T13:47:59;10.38;;;5.68;;
50683;SDS011;36654;45.042;38.994;2023-11-19T13:50:25;9.95;;;5.80;;
50683;SDS011;36654;45.042;38.994;2023-11-19T13:52:53;9.75;;;5.72;;
50683;SDS011;36654;45.042;38.994;2023-11-19T13:55:19;8.35;;;4.82;;
50683;SDS011;36654;45.042;38.994;2023-11-19T13:57:45;9.10;;;5.18;;
50683;SDS011;36654;45.042;38.994;2023-11-19T14:00:11;7.75;;;4.93;;
50683;SDS011;36654;45.042;38.994;2023-11-19T14:02:38;6.38;;;4.30;;
50683;SDS011;36654;45.042;38.994;2023-11-19T14:05:06;8.57;;;4.43;;
50683;SDS011;36654;45.042;38.994;2023-11-19T14:07:32;9.35;;;4.43;;
50683;SDS011;36654;45.042;38.994;2023-11-19T14:09:58;6.82;;;4.32;;
50683;SDS011;36654;45.042;38.994;2023-11-19T14:12:24;8.90;;;5.05;;
50683;SDS011;36654;45.042;38.994;2023-11-19T14:14:49;9.90;;;4.35;;
50683;SDS011;36654;45.042;38.994;2023-11-19T14:17:15;7.10;;;4.68;;
50683;SDS011;36654;45.042;38.994;2023-11-19T14:19:41;8.05;;;4.05;;
50683;SDS011;36654;45.042;38.994;2023-11-19T14:22:08;7.57;;;4.30;;
50683;SDS011;36654;45.042;38.994;2023-11-19T14:24:34;7.43;;;4.50;;
50683;SDS011;36654;45.042;38.994;2023-11-19T14:27:00;8.70;;;5.10;;
50683;SDS011;36654;45.042;38.994;2023-11-19T14:29:26;7.63;;;4.35;;
50683;SDS011;36654;45.042;38.994;2023-11-19T14:31:54;6.55;;;4.10;;
50683;SDS011;36654;45.042;38.994;2023-11-19T14:34:20;8.15;;;4.30;;
50683;SDS011;36654;45.042;38.994;2023-11-19T14:36:46;8.23;;;4.10;;
50683;SDS011;36654;45.042;38.994;2023-11-19T14:39:12;7.93;;;3.78;;
50683;SDS011;36654;45.042;38.994;2023-11-19T14:41:38;8.85;;;4.47;;
50683;SDS011;36654;45.042;38.994;2023-11-19T14:44:04;6.45;;;4.10;;
50683;SDS011;36654;45.042;38.994;2023-11-19T14:46:30;8.40;;;4.10;;
50683;SDS011;36654;45.042;38.994;2023-11-19T14:48:56;8.25;;;3.85;;
50683;SDS011;36654;45.042;38.994;2023-11-19T14:51:22;6.38;;;4.05;;
50683;SDS011;36654;45.042;38.994;2023-11-19T14:53:47;7.28;;;4.43;;
50683;SDS011;36654;45.042;38.994;2023-11-19T14:56:13;8.85;;;3.92;;
50683;SDS011;36654;45.042;38.994;2023-11-19T14:58:39;7.55;;;3.72;;
50683;SDS011;36654;45.042;38.994;2023-11-19T15:01:05;7.28;;;4.15;;
50683;SDS011;36654;45.042;38.994;2023-11-19T15:03:32;7.93;;;4.47;;
50683;SDS011;36654;45.042;38.994;2023-11-19T15:05:58;8.05;;;4.80;;
50683;SDS011;36654;45.042;38.994;2023-11-19T15:08:24;8.45;;;4.60;;
50683;SDS011;36654;45.042;38.994;2023-11-19T15:10:50;7.05;;;4.63;;
50683;SDS011;36654;45.042;38.994;2023-11-19T15:13:16;9.93;;;4.78;;